createdAt,value
2023-01-09T00:02:37.089Z,20.00
2023-01-09T00:05:13.634Z,19.40
2023-01-09T00:07:45.210Z,16.95
2023-01-09T00:10:16.570Z,19.73
2023-01-09T00:12:47.985Z,17.27
2023-01-09T00:15:19.560Z,17.70
2023-01-09T00:17:51.192Z,19.10
2023-01-09T00:20:22.752Z,20.48
2023-01-09T00:22:54.187Z,22.48
2023-01-09T00:25:25.631Z,20.72
2023-01-09T00:27:57.109Z,17.02
2023-01-09T00:30:28.595Z,21.37
2023-01-09T00:33:00.302Z,19.42
2023-01-09T00:35:31.680Z,21.02
2023-01-09T00:38:04.748Z,20.08
2023-01-09T00:40:36.194Z,21.50
2023-01-09T00:43:07.739Z,23.42
2023-01-09T00:45:39.264Z,23.32
2023-01-09T00:48:14.094Z,20.45
2023-01-09T00:50:45.683Z,20.88
2023-01-09T00:53:20.120Z,18.87
2023-01-09T00:55:51.887Z,20.48
2023-01-09T00:58:23.326Z,19.95
2023-01-09T01:00:54.721Z,19.30
2023-01-09T01:03:26.170Z,18.82
2023-01-09T01:06:30.416Z,20.60
2023-01-09T01:09:01.849Z,23.90
2023-01-09T01:11:34.439Z,24.43
2023-01-09T01:14:05.903Z,24.32
2023-01-09T01:16:37.503Z,22.73
2023-01-09T01:19:08.998Z,23.57
2023-01-09T01:21:40.791Z,20.37
2023-01-09T01:24:12.608Z,18.32
2023-01-09T01:26:43.955Z,19.90
2023-01-09T01:29:15.493Z,17.95
2023-01-09T01:31:46.856Z,18.92
2023-01-09T01:34:18.289Z,16.17
2023-01-09T01:36:49.659Z,18.48
2023-01-09T01:39:21.069Z,21.82
2023-01-09T01:41:52.468Z,20.27
2023-01-09T01:47:54.333Z,17.50
2023-01-09T01:50:30.744Z,22.07
2023-01-09T01:53:10.368Z,14.18
2023-01-09T01:55:45.041Z,20.72
2023-01-09T01:58:17.884Z,18.15
2023-01-09T02:00:49.998Z,20.05
2023-01-09T02:03:24.788Z,21.33
2023-01-09T02:05:56.226Z,17.23
2023-01-09T02:08:28.063Z,17.35
2023-01-09T02:10:59.837Z,18.27
2023-01-09T02:13:32.590Z,17.67
2023-01-09T02:16:11.220Z,19.92
2023-01-09T02:18:52.362Z,18.23
2023-01-09T02:24:36.839Z,18.17
2023-01-09T02:27:28.634Z,15.60
2023-01-09T02:30:42.756Z,16.82
2023-01-09T02:33:41.513Z,18.30
2023-01-09T02:36:21.766Z,20.02
2023-01-09T02:39:01.992Z,18.37
2023-01-09T02:41:36.675Z,5.50
2023-01-09T02:44:19.016Z,10.55
2023-01-09T02:47:00.685Z,4.72
2023-01-09T02:49:33.549Z,0.82
2023-01-09T02:52:12.060Z,0.60
2023-01-09T02:54:51.086Z,0.47
2023-01-09T02:57:32.564Z,0.10
2023-01-09T03:00:13.585Z,0.00
2023-01-09T03:02:51.944Z,0.00
2023-01-09T03:05:27.158Z,0.10
2023-01-09T03:08:02.802Z,0.00
2023-01-09T03:10:38.341Z,0.00
2023-01-09T03:13:12.775Z,0.00
2023-01-09T03:15:46.897Z,0.00
2023-01-09T03:18:21.805Z,0.00
2023-01-09T03:20:55.213Z,0.30
2023-01-09T03:23:26.578Z,0.00
2023-01-09T03:25:58.020Z,0.00
2023-01-09T03:28:32.016Z,0.57
2023-01-09T03:31:03.459Z,0.00
2023-01-09T03:33:34.835Z,0.00
2023-01-09T03:36:07.285Z,0.00
2023-01-09T03:38:38.718Z,0.00
2023-01-09T03:41:10.347Z,0.00
2023-01-09T03:43:41.754Z,0.00
2023-01-09T03:46:13.236Z,0.00
2023-01-09T03:48:44.854Z,0.00
2023-01-09T03:51:15.973Z,0.20
2023-01-09T03:53:47.442Z,0.00
2023-01-09T03:56:18.858Z,0.00
2023-01-09T03:58:52.301Z,0.00
2023-01-09T04:01:23.910Z,0.23
2023-01-09T04:03:55.400Z,0.00
2023-01-09T04:06:26.759Z,0.00
2023-01-09T04:08:58.153Z,0.05
2023-01-09T04:11:29.541Z,0.68
2023-01-09T04:14:00.945Z,0.60
2023-01-09T04:16:32.452Z,0.10
2023-01-09T04:19:03.936Z,0.10
2023-01-09T04:21:35.289Z,0.00
2023-01-09T04:24:08.224Z,0.00
2023-01-09T04:26:39.619Z,0.08
2023-01-09T04:29:11.059Z,0.00
2023-01-09T04:31:42.640Z,0.10
2023-01-09T04:34:14.123Z,0.30
2023-01-09T04:36:46.615Z,0.25
2023-01-09T04:39:18.204Z,0.75
2023-01-09T04:41:49.611Z,1.67
2023-01-09T04:44:23.224Z,1.17
2023-01-09T04:46:55.783Z,0.82
2023-01-09T04:49:27.410Z,0.23
2023-01-09T04:51:58.922Z,0.40
2023-01-09T04:54:30.354Z,0.00
2023-01-09T04:57:01.789Z,0.00
2023-01-09T04:59:33.227Z,7.20
2023-01-09T05:02:04.750Z,0.35
2023-01-09T05:04:36.652Z,0.10
2023-01-09T05:07:08.006Z,0.00
2023-01-09T05:09:39.461Z,0.33
2023-01-09T05:12:11.046Z,0.00
2023-01-09T05:14:42.502Z,0.60
2023-01-09T05:17:13.914Z,0.53
2023-01-09T05:19:45.952Z,0.85
2023-01-09T05:22:17.459Z,0.50
2023-01-09T05:24:49.047Z,0.53
2023-01-09T05:27:20.491Z,0.50
2023-01-09T05:29:51.933Z,0.10
2023-01-09T05:32:23.268Z,0.20
2023-01-09T05:34:54.736Z,0.50
2023-01-09T05:37:26.411Z,0.10
2023-01-09T05:39:57.834Z,0.10
2023-01-09T05:42:29.259Z,0.00
2023-01-09T05:45:00.623Z,0.00
2023-01-09T05:47:31.968Z,0.05
2023-01-09T05:50:03.428Z,0.10
2023-01-09T05:52:34.782Z,0.10
2023-01-09T05:55:08.081Z,0.00
2023-01-09T05:57:39.426Z,0.10
2023-01-09T06:00:13.076Z,0.00
2023-01-09T06:02:44.574Z,1.75
2023-01-09T06:05:16.088Z,0.35
2023-01-09T06:07:47.517Z,0.45
2023-01-09T06:10:19.901Z,0.78
2023-01-09T06:12:53.222Z,0.35
2023-01-09T06:15:24.691Z,0.00
2023-01-09T06:17:56.300Z,0.50
2023-01-09T06:20:27.706Z,0.40
2023-01-09T06:22:59.268Z,0.10
2023-01-09T06:25:30.736Z,0.60
2023-01-09T06:28:14.135Z,4.45
2023-01-09T06:30:49.436Z,6.12
2023-01-09T06:33:21.725Z,1.50
2023-01-09T06:35:53.362Z,1.72
2023-01-09T06:38:24.820Z,1.27
2023-01-09T06:40:56.189Z,0.40
2023-01-09T06:43:27.616Z,2.83
2023-01-09T06:45:59.089Z,4.97
2023-01-09T06:48:30.705Z,0.50
2023-01-09T06:51:02.650Z,0.10
2023-01-09T06:53:35.011Z,0.55
2023-01-09T06:56:07.368Z,1.20
2023-01-09T06:58:38.798Z,1.25
2023-01-09T07:01:10.444Z,0.98
2023-01-09T07:03:42.284Z,0.60
2023-01-09T07:06:13.600Z,1.77
2023-01-09T07:08:46.664Z,1.02
2023-01-09T07:11:18.151Z,1.17
2023-01-09T07:13:49.825Z,1.45
2023-01-09T07:16:21.321Z,0.20
2023-01-09T07:18:54.715Z,0.55
2023-01-09T07:21:26.155Z,1.52
2023-01-09T07:23:58.573Z,15.85
2023-01-09T07:26:30.033Z,2.35
2023-01-09T07:29:01.537Z,1.75
2023-01-09T07:31:34.913Z,1.00
2023-01-09T07:34:06.397Z,0.90
2023-01-09T07:36:37.724Z,1.15
2023-01-09T07:39:09.229Z,1.98
2023-01-09T07:41:40.568Z,0.37
2023-01-09T07:44:12.166Z,1.27
2023-01-09T07:46:43.566Z,1.85
2023-01-09T07:49:15.131Z,1.70
2023-01-09T07:51:48.187Z,0.95
2023-01-09T07:54:19.602Z,1.45
2023-01-09T07:56:51.119Z,1.72
2023-01-09T07:59:22.507Z,0.98
2023-01-09T08:01:53.914Z,1.20
2023-01-09T08:04:25.772Z,2.83
2023-01-09T08:06:57.534Z,1.55
2023-01-09T08:09:28.903Z,0.88
2023-01-09T08:12:00.966Z,0.60
2023-01-09T08:14:32.679Z,6.62
2023-01-09T08:17:04.141Z,2.10
2023-01-09T08:19:35.772Z,2.85
2023-01-09T08:22:07.186Z,0.98
2023-01-09T08:24:38.666Z,0.72
2023-01-09T08:27:10.258Z,1.40
2023-01-09T08:29:41.616Z,0.60
2023-01-09T08:32:13.113Z,0.60
2023-01-09T08:34:44.583Z,0.42
2023-01-09T08:37:15.964Z,3.40
2023-01-09T08:39:48.649Z,5.03
2023-01-09T08:42:38.127Z,2.05
2023-01-09T08:45:30.348Z,1.17
2023-01-09T08:48:01.856Z,1.60
2023-01-09T08:50:33.245Z,7.95
2023-01-09T08:53:04.930Z,2.30
2023-01-09T08:55:36.337Z,2.22
2023-01-09T08:58:07.799Z,0.88
2023-01-09T09:00:39.096Z,1.90
2023-01-09T09:03:12.417Z,1.32
2023-01-09T09:05:46.071Z,3.35
2023-01-09T09:08:17.140Z,1.00
2023-01-09T09:10:48.497Z,1.40
2023-01-09T09:13:19.949Z,11.08
2023-01-09T09:15:51.505Z,5.95
2023-01-09T09:18:23.066Z,5.92
2023-01-09T09:20:54.486Z,2.05
2023-01-09T09:23:25.943Z,2.75
2023-01-09T09:25:57.284Z,1.00
2023-01-09T09:28:28.745Z,0.85
2023-01-09T09:31:00.258Z,4.33
2023-01-09T09:33:31.663Z,4.22
2023-01-09T09:36:03.129Z,3.55
2023-01-09T09:38:34.536Z,5.15
2023-01-09T09:42:01.021Z,4.15
2023-01-09T09:44:53.527Z,6.00
2023-01-09T09:47:30.736Z,4.17
2023-01-09T09:50:07.773Z,1.67
2023-01-09T09:52:42.562Z,0.85
2023-01-09T09:55:19.227Z,1.37
2023-01-09T09:57:52.874Z,1.02
2023-01-09T10:00:25.589Z,2.45
2023-01-09T10:03:01.042Z,1.65
2023-01-09T10:05:35.817Z,1.07
2023-01-09T10:08:15.712Z,1.62
2023-01-09T10:10:45.977Z,1.45
2023-01-09T10:13:37.241Z,3.60
2023-01-09T10:18:43.567Z,1.70
2023-01-09T10:21:18.483Z,2.33
2023-01-09T10:24:01.030Z,1.50
2023-01-09T10:26:35.806Z,0.80
2023-01-09T10:32:39.062Z,1.25
2023-01-09T10:35:27.444Z,3.22
2023-01-09T10:38:01.685Z,4.50
2023-01-09T10:40:36.064Z,0.60
2023-01-09T10:43:10.634Z,1.10
2023-01-09T10:45:47.045Z,0.78
2023-01-09T10:48:22.477Z,1.90
2023-01-09T10:50:55.527Z,5.00
2023-01-09T10:53:30.059Z,1.47
2023-01-09T10:56:05.240Z,1.00
2023-01-09T10:58:36.939Z,1.52
2023-01-09T11:01:10.238Z,0.70
2023-01-09T11:03:41.644Z,1.05
2023-01-09T11:06:19.676Z,4.45
2023-01-09T11:08:53.491Z,1.92
2023-01-09T11:11:35.901Z,24.65
2023-01-09T11:14:12.068Z,1.02
2023-01-09T11:16:54.113Z,2.02
2023-01-09T11:19:26.795Z,1.00
2023-01-09T11:22:10.325Z,1.45
2023-01-09T11:24:42.092Z,0.60
2023-01-09T11:27:24.203Z,1.42
2023-01-09T11:30:22.587Z,7.80
2023-01-09T11:32:54.588Z,1.17
2023-01-09T11:35:33.738Z,1.40
2023-01-09T11:38:09.006Z,0.95
2023-01-09T11:40:52.501Z,1.70
2023-01-09T11:43:32.640Z,0.53
2023-01-09T11:46:07.011Z,1.17
2023-01-09T11:48:46.004Z,2.15
2023-01-09T11:51:23.736Z,0.72
2023-01-09T11:54:09.706Z,0.85
2023-01-09T11:56:41.554Z,0.72
2023-01-09T11:59:15.989Z,1.22
2023-01-09T12:05:13.594Z,2.25
2023-01-09T12:07:52.548Z,0.85
2023-01-09T12:10:41.210Z,0.78
2023-01-09T12:13:18.378Z,1.10
2023-01-09T12:15:53.586Z,3.45
2023-01-09T12:18:44.557Z,0.95
2023-01-09T12:21:22.288Z,0.95
2023-01-09T12:24:03.303Z,1.80
2023-01-09T12:29:32.066Z,0.57
2023-01-09T12:32:19.111Z,1.52
2023-01-09T12:35:04.926Z,1.35
2023-01-09T12:37:46.505Z,0.50
2023-01-09T12:40:27.084Z,1.85
2023-01-09T12:43:01.686Z,1.35
2023-01-09T12:45:48.853Z,0.88
2023-01-09T12:48:29.781Z,12.30
2023-01-09T12:51:12.522Z,1.90
2023-01-09T12:53:46.948Z,1.30
2023-01-09T12:56:21.164Z,2.52
2023-01-09T12:58:56.646Z,3.27
2023-01-09T13:01:31.486Z,0.28
2023-01-09T13:04:08.189Z,1.07
2023-01-09T13:06:42.774Z,0.93
2023-01-09T13:09:21.470Z,0.93
2023-01-09T13:11:57.631Z,1.57
2023-01-09T13:14:35.869Z,3.08
2023-01-09T13:17:11.025Z,0.62
2023-01-09T13:19:43.847Z,0.30
2023-01-09T13:22:18.051Z,1.75
2023-01-09T13:25:12.580Z,1.57
2023-01-09T13:27:46.942Z,1.10
2023-01-09T13:30:29.525Z,0.40
2023-01-09T13:33:05.767Z,2.67
2023-01-09T13:35:48.941Z,1.55
2023-01-09T13:38:23.051Z,1.00
2023-01-09T13:41:26.455Z,0.30
2023-01-09T13:44:01.470Z,1.90
2023-01-09T13:46:39.447Z,3.30
2023-01-09T13:49:33.760Z,0.68
2023-01-09T13:52:06.954Z,2.45
2023-01-09T13:55:24.420Z,0.47
2023-01-09T13:58:23.944Z,1.45
2023-01-09T14:01:05.301Z,0.20
2023-01-09T14:03:39.168Z,1.47
2023-01-09T14:06:18.254Z,0.78
2023-01-09T14:08:52.715Z,0.42
2023-01-09T14:11:27.574Z,0.62
2023-01-09T14:14:05.735Z,2.85
2023-01-09T14:16:38.808Z,2.17
2023-01-09T14:19:22.097Z,3.37
2023-01-09T14:21:56.993Z,0.23
2023-01-09T14:24:32.465Z,1.65
2023-01-09T14:27:03.993Z,1.12
2023-01-09T14:29:47.516Z,1.37
2023-01-09T14:32:44.309Z,0.70
2023-01-09T14:35:20.938Z,2.15
2023-01-09T14:37:59.418Z,2.42
2023-01-09T14:40:31.713Z,1.57
2023-01-09T14:43:08.864Z,2.75
2023-01-09T14:45:41.623Z,0.50
2023-01-09T14:48:15.574Z,1.95
2023-01-09T14:50:51.157Z,0.78
2023-01-09T14:53:25.482Z,0.65
2023-01-09T14:55:58.973Z,2.08
2023-01-09T14:58:32.229Z,2.85
2023-01-09T15:01:05.663Z,1.57
2023-01-09T15:03:40.471Z,0.72
2023-01-09T15:06:15.357Z,0.65
2023-01-09T15:08:48.512Z,2.85
2023-01-09T15:11:20.816Z,3.47
2023-01-09T15:13:54.480Z,2.17
2023-01-09T15:16:27.583Z,6.37
2023-01-09T15:19:02.325Z,2.77
2023-01-09T15:21:34.555Z,11.15
2023-01-09T15:24:15.860Z,13.15
2023-01-09T15:26:53.579Z,3.55
2023-01-09T15:29:25.353Z,3.90
2023-01-09T15:32:00.014Z,0.60
2023-01-09T15:34:31.594Z,0.82
2023-01-09T15:37:03.688Z,1.27
2023-01-09T15:39:39.176Z,0.80
2023-01-09T15:42:33.825Z,1.42
2023-01-09T15:45:06.504Z,0.47
2023-01-09T15:47:37.931Z,2.17
2023-01-09T15:50:14.945Z,0.47
2023-01-09T15:52:46.960Z,2.92
2023-01-09T15:55:29.289Z,3.83
2023-01-09T15:58:00.708Z,4.12
2023-01-09T16:00:44.017Z,0.53
2023-01-09T16:03:30.568Z,0.65
2023-01-09T16:06:05.876Z,2.05
2023-01-09T16:08:40.686Z,0.33
2023-01-09T16:11:19.989Z,2.37
2023-01-09T16:13:52.184Z,1.45
2023-01-09T16:16:30.920Z,0.20
2023-01-09T16:19:02.481Z,1.22
2023-01-09T16:21:36.799Z,0.50
2023-01-09T16:24:27.217Z,0.53
2023-01-09T16:27:14.711Z,2.30
2023-01-09T16:29:50.089Z,1.40
2023-01-09T16:32:23.411Z,2.20
2023-01-09T16:34:56.578Z,3.67
2023-01-09T16:37:28.904Z,1.07
2023-01-09T16:40:36.327Z,3.75
2023-01-09T16:43:11.994Z,0.30
2023-01-09T16:45:44.958Z,1.20
2023-01-09T16:48:17.910Z,1.42
2023-01-09T16:50:49.592Z,1.80
2023-01-09T16:53:24.148Z,0.95
2023-01-09T16:55:56.181Z,0.72
2023-01-09T16:58:30.473Z,1.75
2023-01-09T17:01:02.129Z,0.68
2023-01-09T17:03:33.726Z,1.37
2023-01-09T17:06:06.905Z,6.00
2023-01-09T17:08:39.342Z,1.67
2023-01-09T17:11:16.910Z,3.55
2023-01-09T17:13:48.756Z,1.75
2023-01-09T17:16:20.953Z,2.27
2023-01-09T17:18:52.506Z,2.67
2023-01-09T17:21:26.624Z,1.70
2023-01-09T17:24:17.168Z,0.82
2023-01-09T17:27:09.166Z,1.32
2023-01-09T17:29:40.652Z,1.82
2023-01-09T17:32:15.646Z,1.57
2023-01-09T17:34:47.278Z,1.17
2023-01-09T17:37:20.266Z,1.27
2023-01-09T17:39:53.856Z,1.42
2023-01-09T17:42:25.414Z,1.17
2023-01-09T17:44:56.867Z,10.45
2023-01-09T17:47:28.785Z,1.50
2023-01-09T17:50:00.315Z,4.05
2023-01-09T17:52:32.986Z,4.37
2023-01-09T17:55:05.698Z,7.33
2023-01-09T17:57:37.988Z,4.65
2023-01-09T18:00:15.017Z,3.58
2023-01-09T18:02:46.541Z,3.27
2023-01-09T18:05:18.361Z,4.35
2023-01-09T18:07:49.936Z,2.70
2023-01-09T18:10:23.931Z,2.05
2023-01-09T18:12:56.842Z,1.67
2023-01-09T18:15:28.458Z,4.75
2023-01-09T18:18:00.432Z,2.75
2023-01-09T18:20:31.916Z,9.80
2023-01-09T18:23:03.475Z,16.80
2023-01-09T18:25:35.218Z,9.75
2023-01-09T18:28:07.018Z,4.92
2023-01-09T18:30:38.522Z,5.70
2023-01-09T18:33:09.948Z,5.37
2023-01-09T18:35:41.396Z,2.05
2023-01-09T18:38:13.762Z,1.90
2023-01-09T18:40:49.797Z,1.02
2023-01-09T18:43:21.413Z,3.10
2023-01-09T18:45:53.089Z,3.47
2023-01-09T18:48:24.876Z,3.65
2023-01-09T18:51:06.003Z,1.27
2023-01-09T18:56:07.925Z,1.52
2023-01-09T18:58:39.297Z,1.00
2023-01-09T19:01:11.947Z,2.85
2023-01-09T19:03:43.740Z,1.60
2023-01-09T19:06:15.237Z,1.90
2023-01-09T19:08:47.178Z,3.58
2023-01-09T19:11:18.651Z,0.62
2023-01-09T19:13:50.523Z,0.28
2023-01-09T19:16:22.263Z,1.37
2023-01-09T19:18:53.849Z,1.55
2023-01-09T19:21:26.731Z,2.20
2023-01-09T19:23:58.776Z,7.05
2023-01-09T19:26:31.575Z,1.70
2023-01-09T19:29:03.084Z,1.90
2023-01-09T19:31:35.242Z,1.15
2023-01-09T19:34:06.828Z,1.35
2023-01-09T19:36:38.494Z,1.67
2023-01-09T19:39:10.113Z,1.05
2023-01-09T19:41:42.233Z,1.98
2023-01-09T19:44:14.345Z,1.30
2023-01-09T19:46:45.851Z,2.42
2023-01-09T19:49:17.477Z,0.70
2023-01-09T19:51:50.739Z,0.98
2023-01-09T19:54:25.964Z,0.72
2023-01-09T19:56:58.301Z,2.45
2023-01-09T19:59:30.265Z,7.05
2023-01-09T20:02:03.098Z,1.50
2023-01-09T20:04:34.855Z,0.40
2023-01-09T20:07:06.486Z,0.60
2023-01-09T20:09:37.832Z,0.28
2023-01-09T20:12:09.824Z,0.30
2023-01-09T20:14:41.384Z,0.70
2023-01-09T20:17:13.013Z,0.47
2023-01-09T20:19:45.893Z,1.82
2023-01-09T20:22:17.562Z,3.90
2023-01-09T20:24:49.119Z,6.03
2023-01-09T20:27:20.680Z,2.08
2023-01-09T20:29:52.658Z,1.57
2023-01-09T20:32:24.927Z,1.70
2023-01-09T20:34:57.079Z,1.60
2023-01-09T20:37:28.314Z,3.40
2023-01-09T20:39:59.757Z,7.12
2023-01-09T20:42:34.153Z,3.42
2023-01-09T20:45:06.663Z,2.90
2023-01-09T20:47:38.164Z,0.70
2023-01-09T20:50:12.229Z,1.22
2023-01-09T20:52:43.810Z,0.95
2023-01-09T20:55:15.384Z,1.15
2023-01-09T20:57:46.773Z,1.02
2023-01-09T21:00:20.592Z,1.70
2023-01-09T21:02:51.961Z,6.12
2023-01-09T21:05:23.501Z,1.52
2023-01-09T21:07:55.510Z,0.53
2023-01-09T21:10:26.953Z,1.10
2023-01-09T21:12:58.302Z,3.00
2023-01-09T21:15:29.817Z,0.55
2023-01-09T21:18:01.518Z,1.70
2023-01-09T21:20:33.110Z,1.47
2023-01-09T21:23:04.457Z,0.65
2023-01-09T21:25:37.818Z,0.20
2023-01-09T21:28:12.952Z,0.47
2023-01-09T21:30:46.508Z,3.10
2023-01-09T21:33:20.823Z,1.52
2023-01-09T21:35:57.557Z,1.52
2023-01-09T21:38:28.976Z,0.98
2023-01-09T21:41:02.539Z,0.50
2023-01-09T21:43:51.622Z,0.65
2023-01-09T21:46:40.859Z,0.40
2023-01-09T21:49:12.267Z,1.17
2023-01-09T21:51:44.127Z,0.72
2023-01-09T21:54:15.776Z,0.78
2023-01-09T21:56:47.684Z,0.88
2023-01-09T21:59:19.056Z,1.30
2023-01-09T22:01:51.382Z,0.78
2023-01-09T22:04:25.024Z,1.02
2023-01-09T22:06:56.799Z,1.50
2023-01-09T22:09:28.571Z,1.42
2023-01-09T22:11:59.983Z,8.23
2023-01-09T22:14:31.517Z,1.60
2023-01-09T22:17:02.949Z,2.52
2023-01-09T22:19:34.707Z,1.82
2023-01-09T22:22:07.790Z,1.70
2023-01-09T22:24:39.211Z,1.20
2023-01-09T22:27:10.919Z,4.42
2023-01-09T22:29:42.372Z,1.42
2023-01-09T22:32:13.927Z,1.27
2023-01-09T22:34:45.467Z,1.17
2023-01-09T22:37:17.023Z,0.40
2023-01-09T22:39:48.652Z,0.80
2023-01-09T22:42:20.148Z,9.60
2023-01-09T22:44:51.503Z,4.10
2023-01-09T22:47:23.067Z,1.37
2023-01-09T22:49:54.430Z,1.65
2023-01-09T22:52:25.925Z,2.83
2023-01-09T22:54:57.278Z,1.07
2023-01-09T22:57:28.678Z,2.62
2023-01-09T23:00:00.064Z,3.15
2023-01-09T23:02:31.732Z,0.72
2023-01-09T23:05:03.178Z,3.55
2023-01-09T23:07:34.595Z,2.02
2023-01-09T23:10:07.829Z,1.00
2023-01-09T23:12:39.181Z,3.77
2023-01-09T23:15:12.076Z,2.08
2023-01-09T23:17:43.431Z,0.45
2023-01-09T23:20:15.228Z,3.35
2023-01-09T23:22:47.719Z,3.45
2023-01-09T23:25:19.283Z,1.60
2023-01-09T23:27:50.621Z,0.53
2023-01-09T23:30:22.090Z,0.50
2023-01-09T23:32:53.422Z,0.70
2023-01-09T23:35:24.845Z,0.85
2023-01-09T23:37:56.177Z,0.98
2023-01-09T23:40:27.907Z,1.60
2023-01-09T23:43:11.748Z,0.62
2023-01-09T23:45:44.774Z,3.00
2023-01-09T23:48:19.819Z,0.30
2023-01-09T23:50:53.307Z,1.30
2023-01-09T23:53:25.415Z,1.98
2023-01-09T23:55:56.999Z,2.92
2023-01-09T23:58:28.359Z,0.75
